createdAt,value
2018-04-14T00:02:14.525Z,15.30
2018-04-14T00:04:43.807Z,15.22
2018-04-14T00:07:12.132Z,15.02
2018-04-14T00:09:40.818Z,14.86
2018-04-14T00:12:09.229Z,15.00
2018-04-14T00:14:38.392Z,15.18
2018-04-14T00:17:06.724Z,15.16
2018-04-14T00:19:35.092Z,15.24
2018-04-14T00:22:04.224Z,15.11
2018-04-14T00:24:33.339Z,15.19
2018-04-14T00:27:02.110Z,15.26
2018-04-14T00:29:30.488Z,15.29
2018-04-14T00:31:59.624Z,15.25
2018-04-14T00:34:27.993Z,14.89
2018-04-14T00:36:56.351Z,14.80
2018-04-14T00:39:24.682Z,14.54
2018-04-14T00:41:53.028Z,14.31
2018-04-14T00:44:21.366Z,13.92
2018-04-14T00:46:49.724Z,13.76
2018-04-14T00:49:18.355Z,13.62
2018-04-14T00:51:46.679Z,13.40
2018-04-14T00:54:15.022Z,13.50
2018-04-14T00:56:43.388Z,13.31
2018-04-14T00:59:11.747Z,13.40
2018-04-14T01:01:40.097Z,13.31
2018-04-14T01:04:08.472Z,13.32
2018-04-14T01:06:37.603Z,12.94
2018-04-14T01:09:06.633Z,13.17
2018-04-14T01:11:35.318Z,13.36
2018-04-14T01:14:03.685Z,13.39
2018-04-14T01:16:32.799Z,13.46
2018-04-14T01:19:01.159Z,13.49
2018-04-14T01:21:29.499Z,13.46
2018-04-14T01:23:57.843Z,13.39
2018-04-14T01:26:26.191Z,13.51
2018-04-14T01:28:54.535Z,13.49
2018-04-14T01:31:22.851Z,13.50
2018-04-14T01:33:52.281Z,13.44
2018-04-14T01:36:20.635Z,13.43
2018-04-14T01:38:49.010Z,13.60
2018-04-14T01:41:17.388Z,13.90
2018-04-14T01:43:46.490Z,13.93
2018-04-14T01:46:15.582Z,13.72
2018-04-14T01:48:43.933Z,13.67
2018-04-14T01:51:12.263Z,13.82
2018-04-14T01:53:40.604Z,13.72
2018-04-14T01:56:09.177Z,13.70
2018-04-14T01:58:37.503Z,13.66
2018-04-14T02:01:06.600Z,13.72
2018-04-14T02:03:34.999Z,13.70
2018-04-14T02:06:03.367Z,13.70
2018-04-14T02:08:31.732Z,13.72
2018-04-14T02:11:00.114Z,13.61
2018-04-14T02:13:28.463Z,13.65
2018-04-14T02:15:57.615Z,13.97
2018-04-14T02:18:26.109Z,13.86
2018-04-14T02:20:54.479Z,13.75
2018-04-14T02:23:22.863Z,13.76
2018-04-14T02:25:51.238Z,13.71
2018-04-14T02:28:19.605Z,13.79
2018-04-14T02:30:47.970Z,13.72
2018-04-14T02:33:16.361Z,13.61
2018-04-14T02:35:44.731Z,13.64
2018-04-14T02:38:13.042Z,13.63
2018-04-14T02:40:41.813Z,13.69
2018-04-14T02:43:10.155Z,13.61
2018-04-14T02:45:39.286Z,13.74
2018-04-14T02:48:07.669Z,13.39
2018-04-14T02:50:35.972Z,13.32
2018-04-14T02:53:04.335Z,13.31
2018-04-14T02:55:32.716Z,13.05
2018-04-14T02:58:01.062Z,13.20
2018-04-14T03:00:29.407Z,13.28
2018-04-14T03:02:58.267Z,13.27
2018-04-14T03:05:26.608Z,12.99
2018-04-14T03:07:55.707Z,12.96
2018-04-14T03:10:24.146Z,13.01
2018-04-14T03:12:52.459Z,13.10
2018-04-14T03:15:21.728Z,13.03
2018-04-14T03:17:50.107Z,13.10
2018-04-14T03:20:19.252Z,12.93
2018-04-14T03:22:47.612Z,12.99
2018-04-14T03:25:16.930Z,13.04
2018-04-14T03:27:45.254Z,13.08
2018-04-14T03:30:13.614Z,13.15
2018-04-14T03:32:41.976Z,13.32
2018-04-14T03:35:10.308Z,13.41
2018-04-14T03:37:38.623Z,13.34
2018-04-14T03:40:06.996Z,13.05
2018-04-14T03:42:35.322Z,13.14
2018-04-14T03:45:03.667Z,12.99
2018-04-14T03:47:32.226Z,13.08
2018-04-14T03:50:01.355Z,13.09
2018-04-14T03:52:29.687Z,12.94
2018-04-14T03:54:58.072Z,12.84
2018-04-14T03:57:26.427Z,12.97
2018-04-14T03:59:54.807Z,12.86
2018-04-14T04:02:23.228Z,12.92
2018-04-14T04:04:51.573Z,12.90
2018-04-14T04:07:19.910Z,13.04
2018-04-14T04:09:48.670Z,12.91
2018-04-14T04:12:17.019Z,13.02
2018-04-14T04:14:45.347Z,12.94
2018-04-14T04:17:14.027Z,13.11
2018-04-14T04:19:59.906Z,13.21
2018-04-14T04:22:46.588Z,13.16
2018-04-14T04:28:21.151Z,13.24
2018-04-14T04:30:49.467Z,13.17
2018-04-14T04:33:17.804Z,13.22
2018-04-14T04:35:46.158Z,13.32
2018-04-14T04:38:14.497Z,13.08
2018-04-14T04:40:42.910Z,13.13
2018-04-14T04:43:11.288Z,13.03
2018-04-14T04:45:39.626Z,13.26
2018-04-14T04:48:07.978Z,13.21
2018-04-14T04:50:36.793Z,13.16
2018-04-14T04:53:05.151Z,13.20
2018-04-14T04:55:33.505Z,13.13
2018-04-14T04:58:01.877Z,13.20
2018-04-14T05:00:30.247Z,13.24
2018-04-14T05:02:58.593Z,13.24
2018-04-14T05:05:26.939Z,13.27
2018-04-14T05:07:55.348Z,13.16
2018-04-14T05:10:23.759Z,13.18
2018-04-14T05:12:52.412Z,13.14
2018-04-14T05:15:20.741Z,12.82
2018-04-14T05:17:49.273Z,12.85
2018-04-14T05:20:17.652Z,13.17
2018-04-14T05:22:45.987Z,13.20
2018-04-14T05:25:14.337Z,13.09
2018-04-14T05:27:42.729Z,13.16
2018-04-14T05:30:11.113Z,13.02
2018-04-14T05:32:39.451Z,12.92
2018-04-14T05:35:07.973Z,13.13
2018-04-14T05:37:36.296Z,12.99
2018-04-14T05:40:05.417Z,13.09
2018-04-14T05:42:33.847Z,13.10
2018-04-14T05:45:02.315Z,13.06
2018-04-14T05:47:30.670Z,13.14
2018-04-14T05:49:59.071Z,12.85
2018-04-14T05:52:27.432Z,12.84
2018-04-14T05:54:55.794Z,12.92
2018-04-14T05:57:24.667Z,12.94
2018-04-14T05:59:53.026Z,13.02
2018-04-14T06:02:22.160Z,12.91
2018-04-14T06:04:50.533Z,12.76
2018-04-14T06:07:18.890Z,12.58
2018-04-14T06:09:47.975Z,12.53
2018-04-14T06:12:16.369Z,12.51
2018-04-14T06:14:45.505Z,12.63
2018-04-14T06:17:13.863Z,12.59
2018-04-14T06:19:42.470Z,12.66
2018-04-14T06:22:10.896Z,12.55
2018-04-14T06:24:39.200Z,12.68
2018-04-14T06:27:08.388Z,12.64
2018-04-14T06:29:37.481Z,12.71
2018-04-14T06:32:06.571Z,12.75
2018-04-14T06:34:34.913Z,12.65
2018-04-14T06:37:03.355Z,12.99
2018-04-14T06:39:31.871Z,13.12
2018-04-14T06:42:00.523Z,12.95
2018-04-14T06:44:28.903Z,12.89
2018-04-14T06:46:57.257Z,12.90
2018-04-14T06:49:25.595Z,12.88
2018-04-14T06:51:53.969Z,13.01
2018-04-14T06:54:23.140Z,12.61
2018-04-14T06:56:51.543Z,12.42
2018-04-14T06:59:20.020Z,12.73
2018-04-14T07:01:48.401Z,12.89
2018-04-14T07:04:17.027Z,12.78
2018-04-14T07:06:45.367Z,13.30
2018-04-14T07:09:13.821Z,12.85
2018-04-14T07:11:42.936Z,12.86
2018-04-14T07:14:12.069Z,12.89
2018-04-14T07:16:40.412Z,13.28
2018-04-14T07:19:08.748Z,13.37
2018-04-14T07:21:37.072Z,13.39
2018-04-14T07:24:05.420Z,13.34
2018-04-14T07:26:34.826Z,13.09
2018-04-14T07:29:03.910Z,13.35
2018-04-14T07:31:33.002Z,13.65
2018-04-14T07:34:01.415Z,13.60
2018-04-14T07:36:29.787Z,13.47
2018-04-14T07:38:58.879Z,13.56
2018-04-14T07:41:27.237Z,13.53
2018-04-14T07:43:55.548Z,13.45
2018-04-14T07:46:23.887Z,13.47
2018-04-14T07:48:52.402Z,13.46
2018-04-14T07:51:20.747Z,13.25
2018-04-14T07:53:49.110Z,13.44
2018-04-14T07:56:17.488Z,13.29
2018-04-14T07:58:45.807Z,13.65
2018-04-14T08:01:14.194Z,13.40
2018-04-14T08:03:43.323Z,13.55
2018-04-14T08:06:11.735Z,13.29
2018-04-14T08:08:40.042Z,13.33
2018-04-14T08:11:09.280Z,13.33
2018-04-14T08:13:37.608Z,13.08
2018-04-14T08:16:05.962Z,13.40
2018-04-14T08:18:34.338Z,12.82
2018-04-14T08:21:03.447Z,13.13
2018-04-14T08:23:31.807Z,13.00
2018-04-14T08:26:00.387Z,12.97
2018-04-14T08:28:28.737Z,13.32
2018-04-14T08:30:57.324Z,13.28
2018-04-14T08:33:27.513Z,13.20
2018-04-14T08:35:56.642Z,13.41
2018-04-14T08:38:24.984Z,13.28
2018-04-14T08:40:53.450Z,13.24
2018-04-14T08:43:22.012Z,13.13
2018-04-14T08:45:50.386Z,13.17
2018-04-14T08:48:18.769Z,12.70
2018-04-14T08:50:47.912Z,12.96
2018-04-14T08:53:16.307Z,13.15
2018-04-14T08:55:44.888Z,12.97
2018-04-14T08:58:13.250Z,12.64
2018-04-14T09:00:42.368Z,12.89
2018-04-14T09:03:11.546Z,13.17
2018-04-14T09:05:39.913Z,13.29
2018-04-14T09:08:08.281Z,13.30
2018-04-14T09:10:36.617Z,13.27
2018-04-14T09:13:04.942Z,13.28
2018-04-14T09:15:33.316Z,13.14
2018-04-14T09:18:01.740Z,13.25
2018-04-14T09:20:30.821Z,13.35
2018-04-14T09:22:59.250Z,13.36
2018-04-14T09:25:27.609Z,13.36
2018-04-14T09:27:55.966Z,13.16
2018-04-14T09:30:25.084Z,13.23
2018-04-14T09:32:53.434Z,12.62
2018-04-14T09:35:22.526Z,12.78
2018-04-14T09:37:50.902Z,13.00
2018-04-14T09:40:19.722Z,12.91
2018-04-14T09:42:48.855Z,12.74
2018-04-14T09:45:17.252Z,12.94
2018-04-14T09:47:45.647Z,12.86
2018-04-14T09:50:14.004Z,12.74
2018-04-14T09:52:42.571Z,12.88
2018-04-14T09:55:11.036Z,13.16
2018-04-14T09:57:39.398Z,12.93
2018-04-14T10:00:07.837Z,13.09
2018-04-14T10:02:41.881Z,13.05
2018-04-14T10:05:10.264Z,12.92
2018-04-14T10:07:39.359Z,13.18
2018-04-14T10:10:08.501Z,12.73
2018-04-14T10:12:36.834Z,12.67
2018-04-14T10:15:05.935Z,13.12
2018-04-14T10:17:35.096Z,13.06
2018-04-14T10:20:03.913Z,12.73
2018-04-14T10:22:32.294Z,13.13
2018-04-14T10:25:01.449Z,13.08
2018-04-14T10:27:29.803Z,13.10
2018-04-14T10:29:58.173Z,12.92
2018-04-14T10:32:26.599Z,13.16
2018-04-14T10:34:54.947Z,13.24
2018-04-14T10:37:23.353Z,12.97
2018-04-14T10:39:51.761Z,13.17
2018-04-14T10:42:20.118Z,13.21
2018-04-14T10:44:48.502Z,12.90
2018-04-14T10:47:17.826Z,12.91
2018-04-14T10:49:46.172Z,13.03
2018-04-14T10:52:14.599Z,12.86
2018-04-14T10:54:43.047Z,12.91
2018-04-14T10:57:11.437Z,12.88
2018-04-14T10:59:39.884Z,12.90
2018-04-14T11:02:09.096Z,12.90
2018-04-14T11:04:37.489Z,12.85
2018-04-14T11:07:05.949Z,12.88
2018-04-14T11:09:34.433Z,12.63
2018-04-14T11:12:02.760Z,12.74
2018-04-14T11:14:31.239Z,12.63
2018-04-14T11:16:59.593Z,12.61
2018-04-14T11:19:27.930Z,12.96
2018-04-14T11:21:58.462Z,13.13
2018-04-14T11:24:26.987Z,13.29
2018-04-14T11:26:55.332Z,13.29
2018-04-14T11:29:23.663Z,13.17
2018-04-14T11:31:52.419Z,13.05
2018-04-14T11:34:20.758Z,13.16
2018-04-14T11:36:49.072Z,13.25
2018-04-14T11:39:17.421Z,12.98
2018-04-14T11:41:45.773Z,13.01
2018-04-14T11:44:14.103Z,13.09
2018-04-14T11:46:42.479Z,12.89
2018-04-14T11:49:10.839Z,13.06
2018-04-14T11:51:39.160Z,12.69
2018-04-14T11:54:07.892Z,12.65
2018-04-14T11:56:36.235Z,12.67
2018-04-14T11:59:04.544Z,12.93
2018-04-14T12:01:33.674Z,13.08
2018-04-14T12:04:02.052Z,13.13
2018-04-14T12:06:30.380Z,13.14
2018-04-14T12:08:58.791Z,13.24
2018-04-14T12:11:27.154Z,12.87
2018-04-14T12:13:55.523Z,13.08
2018-04-14T12:16:24.767Z,12.91
2018-04-14T12:18:53.114Z,12.81
2018-04-14T12:21:22.200Z,12.83
2018-04-14T12:23:51.359Z,12.96
2018-04-14T12:26:19.764Z,13.23
2018-04-14T12:28:48.191Z,13.29
2018-04-14T12:31:16.600Z,13.43
2018-04-14T12:33:44.978Z,13.12
2018-04-14T12:36:13.365Z,13.09
2018-04-14T12:38:42.106Z,13.39
2018-04-14T12:41:11.216Z,13.24
2018-04-14T12:43:39.558Z,13.25
2018-04-14T12:46:08.680Z,13.32
2018-04-14T12:48:37.030Z,13.34
2018-04-14T12:51:06.173Z,13.64
2018-04-14T12:53:34.558Z,13.31
2018-04-14T12:56:02.903Z,13.04
2018-04-14T12:58:31.282Z,13.41
2018-04-14T13:01:00.609Z,13.52
2018-04-14T13:03:28.970Z,13.22
2018-04-14T13:05:58.071Z,12.97
2018-04-14T13:08:26.434Z,12.85
2018-04-14T13:10:55.573Z,13.06
2018-04-14T13:13:24.665Z,13.28
2018-04-14T13:15:53.057Z,13.13
2018-04-14T13:18:21.441Z,12.97
2018-04-14T13:20:49.818Z,12.90
2018-04-14T13:23:19.054Z,13.07
2018-04-14T13:25:47.426Z,13.14
2018-04-14T13:28:15.779Z,13.17
2018-04-14T13:30:44.133Z,13.13
2018-04-14T13:33:12.478Z,12.86
2018-04-14T13:35:41.643Z,13.06
2018-04-14T13:38:10.010Z,13.33
2018-04-14T13:40:38.359Z,13.58
2018-04-14T13:43:06.729Z,13.46
2018-04-14T13:45:35.415Z,13.61
2018-04-14T13:48:04.557Z,13.56
2018-04-14T13:50:33.695Z,13.34
2018-04-14T13:53:02.807Z,13.30
2018-04-14T13:55:31.905Z,13.48
2018-04-14T13:58:00.267Z,13.33
2018-04-14T14:00:28.639Z,12.97
2018-04-14T14:02:57.778Z,13.31
2018-04-14T14:05:26.148Z,13.49
2018-04-14T14:07:54.757Z,13.43
2018-04-14T14:10:24.005Z,13.60
2018-04-14T14:12:53.095Z,13.72
2018-04-14T14:15:21.461Z,13.50
2018-04-14T14:17:49.845Z,13.74
2018-04-14T14:20:18.221Z,13.45
2018-04-14T14:22:46.606Z,13.44
2018-04-14T14:25:14.920Z,13.63
2018-04-14T14:27:43.253Z,13.33
2018-04-14T14:30:11.881Z,13.41
2018-04-14T14:32:40.214Z,13.58
2018-04-14T14:35:08.563Z,13.40
2018-04-14T14:37:37.186Z,13.76
2018-04-14T14:40:05.664Z,13.69
2018-04-14T14:42:34.874Z,13.13
2018-04-14T14:45:03.784Z,13.53
2018-04-14T14:47:38.857Z,13.34
2018-04-14T14:50:13.577Z,13.28
2018-04-14T14:52:41.928Z,13.34
2018-04-14T14:55:13.764Z,13.45
2018-04-14T14:57:42.122Z,13.67
2018-04-14T15:00:10.480Z,13.19
2018-04-14T15:02:38.881Z,13.64
2018-04-14T15:05:07.278Z,13.46
2018-04-14T15:07:35.631Z,13.54
2018-04-14T15:10:04.605Z,13.44
2018-04-14T15:12:33.727Z,13.68
2018-04-14T15:15:02.068Z,13.54
2018-04-14T15:17:31.260Z,13.43
2018-04-14T15:20:00.409Z,13.52
2018-04-14T15:22:28.774Z,13.69
2018-04-14T15:24:57.319Z,13.58
2018-04-14T15:27:26.436Z,13.45
2018-04-14T15:29:54.792Z,13.25
2018-04-14T15:32:23.429Z,13.44
2018-04-14T15:34:51.840Z,13.38
2018-04-14T15:37:20.946Z,13.50
2018-04-14T15:39:50.087Z,13.56
2018-04-14T15:42:18.483Z,13.53
2018-04-14T15:44:46.904Z,13.53
2018-04-14T15:47:15.285Z,13.32
2018-04-14T15:49:44.406Z,13.34
2018-04-14T15:52:12.758Z,13.36
2018-04-14T15:54:41.450Z,13.71
2018-04-14T15:57:10.622Z,13.89
2018-04-14T15:59:38.994Z,14.13
2018-04-14T16:02:07.424Z,14.19
2018-04-14T16:04:35.836Z,14.23
2018-04-14T16:07:04.149Z,14.05
2018-04-14T16:09:32.588Z,14.00
2018-04-14T16:12:01.026Z,13.94
2018-04-14T16:14:29.378Z,13.64
2018-04-14T16:16:58.059Z,13.71
2018-04-14T16:19:26.425Z,13.71
2018-04-14T16:21:54.766Z,13.83
2018-04-14T16:24:23.151Z,13.97
2018-04-14T16:26:51.831Z,13.84
2018-04-14T16:29:20.964Z,13.71
2018-04-14T16:31:49.336Z,13.90
2018-04-14T16:34:17.721Z,14.11
2018-04-14T16:36:46.829Z,13.77
2018-04-14T16:39:15.310Z,14.00
2018-04-14T16:41:43.675Z,14.29
2018-04-14T16:44:12.039Z,14.25
2018-04-14T16:46:40.455Z,14.00
2018-04-14T16:49:08.813Z,14.01
2018-04-14T16:51:37.160Z,14.14
2018-04-14T16:54:06.280Z,14.12
2018-04-14T16:56:34.636Z,14.39
2018-04-14T16:59:03.757Z,14.35
2018-04-14T17:01:32.433Z,14.29
2018-04-14T17:04:00.784Z,14.16
2018-04-14T17:06:29.116Z,14.27
2018-04-14T17:08:57.528Z,13.95
2018-04-14T17:11:25.925Z,13.99
2018-04-14T17:13:55.032Z,14.27
2018-04-14T17:16:24.179Z,14.42
2018-04-14T17:18:52.608Z,14.10
2018-04-14T17:21:20.896Z,13.92
2018-04-14T17:23:49.448Z,13.72
2018-04-14T17:26:17.785Z,13.82
2018-04-14T17:28:46.183Z,13.81
2018-04-14T17:31:14.547Z,13.57
2018-04-14T17:33:42.891Z,13.69
2018-04-14T17:36:12.065Z,13.84
2018-04-14T17:38:40.449Z,13.97
2018-04-14T17:41:08.825Z,13.71
2018-04-14T17:43:37.226Z,14.01
2018-04-14T17:46:06.566Z,14.32
2018-04-14T17:48:34.907Z,14.37
2018-04-14T17:51:04.032Z,14.30
2018-04-14T17:53:32.457Z,14.24
2018-04-14T17:56:01.004Z,14.25
2018-04-14T17:58:29.451Z,14.33
2018-04-14T18:00:57.861Z,14.37
2018-04-14T18:03:26.223Z,14.43
2018-04-14T18:05:54.614Z,14.47
2018-04-14T18:08:23.316Z,14.15
2018-04-14T18:10:51.767Z,14.23
2018-04-14T18:13:20.119Z,14.23
2018-04-14T18:15:48.516Z,14.44
2018-04-14T18:18:16.992Z,14.38
2018-04-14T18:20:45.352Z,14.38
2018-04-14T18:23:13.735Z,14.22
2018-04-14T18:25:42.213Z,14.20
2018-04-14T18:28:10.565Z,14.22
2018-04-14T18:30:39.973Z,14.00
2018-04-14T18:33:08.479Z,13.87
2018-04-14T18:35:36.904Z,13.90
2018-04-14T18:38:05.339Z,13.92
2018-04-14T18:40:34.468Z,13.97
2018-04-14T18:43:02.910Z,13.74
2018-04-14T18:45:31.416Z,13.83
2018-04-14T18:47:59.808Z,13.99
2018-04-14T18:50:28.925Z,14.10
2018-04-14T18:52:57.385Z,14.32
2018-04-14T18:55:25.812Z,14.32
2018-04-14T18:57:54.145Z,14.29
2018-04-14T19:00:23.302Z,14.15
2018-04-14T19:02:51.683Z,14.09
2018-04-14T19:05:20.026Z,13.83
2018-04-14T19:07:48.401Z,13.77
2018-04-14T19:10:16.804Z,13.77
2018-04-14T19:12:45.168Z,13.64
2018-04-14T19:15:13.615Z,13.51
2018-04-14T19:17:42.019Z,13.42
2018-04-14T19:20:10.375Z,13.44
2018-04-14T19:22:38.881Z,13.32
2018-04-14T19:25:07.250Z,13.58
2018-04-14T19:27:36.394Z,13.68
2018-04-14T19:30:04.752Z,13.49
2018-04-14T19:32:33.713Z,13.72
2018-04-14T19:35:02.821Z,13.79
2018-04-14T19:37:31.291Z,13.81
2018-04-14T19:40:00.417Z,13.70
2018-04-14T19:42:28.792Z,13.58
2018-04-14T19:44:57.183Z,13.63
2018-04-14T19:47:25.533Z,13.85
2018-04-14T19:49:53.878Z,13.90
2018-04-14T19:52:22.253Z,13.71
2018-04-14T19:54:50.690Z,13.80
2018-04-14T19:57:19.042Z,13.93
2018-04-14T19:59:47.579Z,13.96
2018-04-14T20:02:15.973Z,13.87
2018-04-14T20:04:44.349Z,13.69
2018-04-14T20:07:12.857Z,13.64
2018-04-14T20:09:41.991Z,13.86
2018-04-14T20:12:10.338Z,13.75
2018-04-14T20:14:38.811Z,13.79
2018-04-14T20:17:07.159Z,13.71
2018-04-14T20:19:35.541Z,13.77
2018-04-14T20:22:04.296Z,13.51
2018-04-14T20:24:32.637Z,13.60
2018-04-14T20:27:01.740Z,13.58
2018-04-14T20:29:31.025Z,13.36
2018-04-14T20:31:59.428Z,13.57
2018-04-14T20:34:27.750Z,13.64
2018-04-14T20:36:56.159Z,13.60
2018-04-14T20:39:24.517Z,13.44
2018-04-14T20:41:53.619Z,13.64
2018-04-14T20:44:22.091Z,13.53
2018-04-14T20:46:50.415Z,13.50
2018-04-14T20:49:19.597Z,13.64
2018-04-14T20:51:48.003Z,13.55
2018-04-14T20:54:17.183Z,13.38
2018-04-14T20:56:45.594Z,13.13
2018-04-14T20:59:13.983Z,13.32
2018-04-14T21:01:42.298Z,13.31
2018-04-14T21:04:11.433Z,13.54
2018-04-14T21:06:40.829Z,13.49
2018-04-14T21:09:09.922Z,13.59
2018-04-14T21:11:38.271Z,13.28
2018-04-14T21:14:06.656Z,13.41
2018-04-14T21:16:35.112Z,13.49
2018-04-14T21:19:03.444Z,13.39
2018-04-14T21:21:31.807Z,13.36
2018-04-14T21:24:00.179Z,13.47
2018-04-14T21:26:28.599Z,13.52
2018-04-14T21:28:57.028Z,13.65
2018-04-14T21:31:25.380Z,13.65
2018-04-14T21:33:53.716Z,13.36
2018-04-14T21:36:22.102Z,13.55
2018-04-14T21:38:51.352Z,13.57
2018-04-14T21:41:19.677Z,13.56
2018-04-14T21:43:48.038Z,13.62
2018-04-14T21:46:16.405Z,13.69
2018-04-14T21:48:44.766Z,13.72
2018-04-14T21:51:13.420Z,13.62
2018-04-14T21:53:41.851Z,13.53
2018-04-14T21:56:10.214Z,13.55
2018-04-14T21:58:38.581Z,13.48
2018-04-14T22:01:06.931Z,13.43
2018-04-14T22:03:35.270Z,13.45
2018-04-14T22:06:03.637Z,12.99
2018-04-14T22:08:31.966Z,12.86
2018-04-14T22:11:01.089Z,12.82
2018-04-14T22:13:29.890Z,12.94
2018-04-14T22:15:58.237Z,12.90
2018-04-14T22:18:27.324Z,13.32
2018-04-14T22:20:56.463Z,13.22
2018-04-14T22:23:24.761Z,13.07
2018-04-14T22:25:53.104Z,12.97
2018-04-14T22:28:21.474Z,13.00
2018-04-14T22:30:49.804Z,13.04
2018-04-14T22:33:18.153Z,12.91
2018-04-14T22:35:46.969Z,12.78
2018-04-14T22:38:15.359Z,13.02
2018-04-14T22:40:43.710Z,13.19
2018-04-14T22:43:12.085Z,12.93
2018-04-14T22:45:40.415Z,12.98
2018-04-14T22:48:08.760Z,12.97
2018-04-14T22:50:37.116Z,12.88
2018-04-14T22:53:05.459Z,12.97
2018-04-14T22:55:34.572Z,12.91
2018-04-14T22:58:03.156Z,12.77
2018-04-14T23:00:31.538Z,12.61
2018-04-14T23:02:59.858Z,12.59
2018-04-14T23:05:28.281Z,12.52
2018-04-14T23:07:57.397Z,12.35
2018-04-14T23:10:25.718Z,12.24
2018-04-14T23:12:54.073Z,12.21
2018-04-14T23:15:22.418Z,12.06
2018-04-14T23:17:51.544Z,12.17
2018-04-14T23:20:20.082Z,12.21
2018-04-14T23:22:49.196Z,12.19
2018-04-14T23:25:18.275Z,12.28
2018-04-14T23:27:46.599Z,12.28
2018-04-14T23:30:14.948Z,12.14
2018-04-14T23:32:44.031Z,12.04
2018-04-14T23:35:13.148Z,11.74
2018-04-14T23:37:41.810Z,11.44
2018-04-14T23:40:10.178Z,11.51
2018-04-14T23:42:38.584Z,11.46
2018-04-14T23:45:07.660Z,11.48
2018-04-14T23:47:35.987Z,11.60
2018-04-14T23:50:04.336Z,11.58
2018-04-14T23:52:32.689Z,11.63
2018-04-14T23:55:01.029Z,11.63
2018-04-14T23:57:29.372Z,11.55
2018-04-14T23:59:58.461Z,11.57
